createdAt,value
2019-03-21T00:00:53.958Z,20.4
2019-03-21T00:01:40.212Z,20.4
2019-03-21T00:02:29.248Z,20.5
2019-03-21T00:03:21.015Z,20.4
2019-03-21T00:04:10.526Z,20.4
2019-03-21T00:05:00.502Z,20.3
2019-03-21T00:05:49.974Z,20.3
2019-03-21T00:06:40.605Z,20.3
2019-03-21T00:07:29.541Z,20.3
2019-03-21T00:08:20.769Z,20.3
2019-03-21T00:09:10.808Z,20.3
2019-03-21T00:10:00.585Z,20.2
2019-03-21T00:10:51.175Z,20.2
2019-03-21T00:11:41.265Z,20.3
2019-03-21T00:12:31.030Z,20.3
2019-03-21T00:13:21.777Z,20.3
2019-03-21T00:14:16.491Z,20.3
2019-03-21T00:15:01.907Z,20.3
2019-03-21T00:15:51.961Z,20.2
2019-03-21T00:16:41.533Z,20.2
2019-03-21T00:17:31.505Z,20.1
2019-03-21T00:18:20.942Z,20.1
2019-03-21T00:19:10.749Z,20.1
2019-03-21T00:20:01.385Z,20
2019-03-21T00:20:52.213Z,19.9
2019-03-21T00:21:41.702Z,19.9
2019-03-21T00:22:46.573Z,19.9
2019-03-21T00:23:21.265Z,19.8
2019-03-21T00:24:12.143Z,19.8
2019-03-21T00:25:01.398Z,19.8
2019-03-21T00:25:50.981Z,19.8
2019-03-21T00:26:41.864Z,19.7
2019-03-21T00:27:31.642Z,19.6
2019-03-21T00:28:22.441Z,19.6
2019-03-21T00:29:11.552Z,19.5
2019-03-21T00:30:01.852Z,19.5
2019-03-21T00:30:51.891Z,19.5
2019-03-21T00:31:41.919Z,19.4
2019-03-21T00:32:32.765Z,19.4
2019-03-21T00:33:22.872Z,19.4
2019-03-21T00:34:13.419Z,19.4
2019-03-21T00:35:02.636Z,19.3
2019-03-21T00:35:52.734Z,19.3
2019-03-21T00:36:42.869Z,19.3
2019-03-21T00:37:32.641Z,19.2
2019-03-21T00:38:22.909Z,19.2
2019-03-21T00:39:13.527Z,19.2
2019-03-21T00:40:01.499Z,19.2
2019-03-21T00:40:52.798Z,19.3
2019-03-21T00:41:44.034Z,19.3
2019-03-21T00:42:33.263Z,19.3
2019-03-21T00:43:22.721Z,19.4
2019-03-21T00:44:24.734Z,19.4
2019-03-21T00:45:03.446Z,19.5
2019-03-21T00:45:53.488Z,19.6
2019-03-21T00:46:42.726Z,19.6
2019-03-21T00:47:33.078Z,19.7
2019-03-21T00:48:23.388Z,19.8
2019-03-21T00:49:13.686Z,19.9
2019-03-21T00:50:03.296Z,19.9
2019-03-21T00:50:54.110Z,20
2019-03-21T00:51:43.579Z,20.1
2019-03-21T00:52:33.388Z,20.2
2019-03-21T00:53:24.400Z,20.3
2019-03-21T00:54:14.931Z,20.3
2019-03-21T00:55:03.897Z,20.2
2019-03-21T00:55:54.535Z,20.1
2019-03-21T00:56:44.037Z,20.1
2019-03-21T00:57:34.593Z,20.1
2019-03-21T00:58:24.395Z,20.1
2019-03-21T00:59:14.490Z,20
2019-03-21T01:00:05.048Z,19.9
2019-03-21T01:00:54.875Z,19.9
2019-03-21T01:01:44.077Z,19.9
2019-03-21T01:02:34.718Z,20
2019-03-21T01:03:24.187Z,20
2019-03-21T01:04:15.430Z,20
2019-03-21T01:05:04.957Z,20
2019-03-21T01:05:54.640Z,20
2019-03-21T01:06:44.307Z,19.9
2019-03-21T01:07:35.895Z,19.9
2019-03-21T01:08:24.862Z,19.9
2019-03-21T01:09:14.344Z,19.9
2019-03-21T01:10:04.602Z,19.8
2019-03-21T01:10:55.838Z,19.8
2019-03-21T01:11:44.603Z,19.8
2019-03-21T01:12:35.134Z,19.8
2019-03-21T01:13:25.451Z,19.8
2019-03-21T01:14:15.537Z,19.7
2019-03-21T01:15:05.609Z,19.7
2019-03-21T01:15:55.922Z,19.6
2019-03-21T01:16:45.776Z,19.6
2019-03-21T01:17:35.523Z,19.5
2019-03-21T01:18:25.851Z,19.5
2019-03-21T01:19:15.877Z,19.4
2019-03-21T01:20:05.162Z,19.3
2019-03-21T01:20:55.201Z,19.3
2019-03-21T01:21:45.535Z,19.3
2019-03-21T01:22:35.616Z,19.3
2019-03-21T01:23:26.714Z,19.2
2019-03-21T01:24:15.989Z,19.2
2019-03-21T01:25:06.081Z,19.2
2019-03-21T01:25:56.463Z,19.1
2019-03-21T01:26:45.705Z,19.1
2019-03-21T01:27:35.240Z,19.1
2019-03-21T01:28:26.851Z,19.1
2019-03-21T01:29:15.587Z,19.1
2019-03-21T01:30:07.170Z,19.1
2019-03-21T01:30:57.053Z,19.2
2019-03-21T01:31:46.236Z,19.2
2019-03-21T01:32:36.911Z,19.3
2019-03-21T01:33:26.112Z,19.3
2019-03-21T01:34:16.455Z,19.3
2019-03-21T01:35:06.226Z,19.4
2019-03-21T01:35:56.830Z,19.4
2019-03-21T01:36:46.878Z,19.4
2019-03-21T01:37:37.213Z,19.5
2019-03-21T01:38:27.312Z,19.6
2019-03-21T01:39:17.334Z,19.6
2019-03-21T01:40:06.995Z,19.7
2019-03-21T01:40:57.216Z,19.8
2019-03-21T01:41:47.565Z,19.9
2019-03-21T01:42:38.110Z,19.9
2019-03-21T01:43:27.668Z,20.1
2019-03-21T01:44:17.712Z,20.1
2019-03-21T01:45:08.651Z,20.1
2019-03-21T01:45:57.844Z,20
2019-03-21T01:46:47.628Z,19.9
2019-03-21T01:47:38.237Z,19.9
2019-03-21T01:48:27.732Z,19.9
2019-03-21T01:49:18.045Z,20
2019-03-21T01:50:09.004Z,19.9
2019-03-21T01:50:59.047Z,19.9
2019-03-21T01:51:48.309Z,19.9
2019-03-21T01:52:37.769Z,20
2019-03-21T01:53:28.190Z,20.1
2019-03-21T01:54:18.997Z,20.1
2019-03-21T01:55:09.020Z,20.1
2019-03-21T01:55:58.350Z,20.1
2019-03-21T01:56:48.634Z,20.1
2019-03-21T01:57:37.904Z,20
2019-03-21T01:58:28.767Z,20
2019-03-21T01:59:18.817Z,19.9
2019-03-21T02:00:09.457Z,19.9
2019-03-21T02:00:57.964Z,19.9
2019-03-21T02:01:49.061Z,19.9
2019-03-21T02:02:38.786Z,19.8
2019-03-21T02:03:29.702Z,19.8
2019-03-21T02:04:19.779Z,19.8
2019-03-21T02:05:08.774Z,19.7
2019-03-21T02:05:59.021Z,19.6
2019-03-21T02:06:48.852Z,19.6
2019-03-21T02:07:39.161Z,19.6
2019-03-21T02:08:28.901Z,19.5
2019-03-21T02:09:19.321Z,19.4
2019-03-21T02:10:10.465Z,19.4
2019-03-21T02:10:57.726Z,19.3
2019-03-21T02:11:49.278Z,19.3
2019-03-21T02:12:39.773Z,19.3
2019-03-21T02:13:29.614Z,19.3
2019-03-21T02:14:19.381Z,19.2
2019-03-21T02:15:10.508Z,19.1
2019-03-21T02:16:02.034Z,19.1
2019-03-21T02:16:50.406Z,19.1
2019-03-21T02:17:39.671Z,19
2019-03-21T02:18:28.902Z,19
2019-03-21T02:19:19.878Z,19
2019-03-21T02:20:09.833Z,19.1
2019-03-21T02:20:59.878Z,19.1
2019-03-21T02:21:50.182Z,19.1
2019-03-21T02:22:39.663Z,19.1
2019-03-21T02:23:29.790Z,19.2
2019-03-21T02:24:20.091Z,19.3
2019-03-21T02:25:10.405Z,19.3
2019-03-21T02:26:00.752Z,19.4
2019-03-21T02:26:49.848Z,19.5
2019-03-21T02:27:40.065Z,19.6
2019-03-21T02:28:31.212Z,19.6
2019-03-21T02:29:20.221Z,19.7
2019-03-21T02:30:11.523Z,19.7
2019-03-21T02:31:01.588Z,19.7
2019-03-21T02:31:50.514Z,19.8
2019-03-21T02:32:41.635Z,19.9
2019-03-21T02:33:31.077Z,20
2019-03-21T02:34:20.725Z,19.9
2019-03-21T02:35:11.652Z,19.9
2019-03-21T02:36:01.921Z,19.9
2019-03-21T02:36:50.815Z,19.9
2019-03-21T02:37:42.054Z,19.8
2019-03-21T02:38:31.571Z,19.8
2019-03-21T02:39:22.668Z,19.8
2019-03-21T02:40:11.488Z,19.8
2019-03-21T02:41:02.344Z,19.8
2019-03-21T02:41:52.612Z,19.8
2019-03-21T02:42:42.370Z,19.8
2019-03-21T02:43:32.505Z,19.8
2019-03-21T02:44:21.467Z,19.8
2019-03-21T02:45:21.316Z,19.8
2019-03-21T02:46:03.018Z,19.9
2019-03-21T02:46:52.293Z,19.8
2019-03-21T02:47:42.177Z,19.8
2019-03-21T02:48:33.420Z,19.8
2019-03-21T02:49:22.311Z,19.8
2019-03-21T02:50:12.734Z,19.7
2019-03-21T02:51:02.722Z,19.6
2019-03-21T02:51:53.032Z,19.6
2019-03-21T02:52:42.472Z,19.5
2019-03-21T02:53:32.330Z,19.5
2019-03-21T02:54:22.683Z,19.4
2019-03-21T02:55:13.658Z,19.4
2019-03-21T02:56:03.128Z,19.4
2019-03-21T02:56:53.078Z,19.4
2019-03-21T02:57:43.168Z,19.3
2019-03-21T02:58:33.038Z,19.3
2019-03-21T02:59:23.259Z,19.3
2019-03-21T03:00:12.836Z,19.3
2019-03-21T03:01:03.117Z,19.2
2019-03-21T03:01:54.048Z,19.2
2019-03-21T03:02:46.748Z,19.1
2019-03-21T03:03:34.159Z,19.1
2019-03-21T03:04:24.558Z,19.1
2019-03-21T03:07:35.496Z,18.9
2019-03-21T03:08:24.115Z,18.9
2019-03-21T03:09:14.433Z,19
2019-03-21T03:10:04.516Z,19
2019-03-21T03:10:54.810Z,19
2019-03-21T03:11:44.605Z,19.1
2019-03-21T03:12:34.042Z,19.1
2019-03-21T03:13:24.180Z,19.1
2019-03-21T03:14:15.027Z,19.1
2019-03-21T03:15:04.352Z,19.2
2019-03-21T03:15:55.766Z,19.2
2019-03-21T03:16:44.618Z,19.3
2019-03-21T03:17:35.031Z,19.3
2019-03-21T03:18:25.683Z,19.4
2019-03-21T03:19:15.077Z,19.4
2019-03-21T03:20:05.593Z,19.5
2019-03-21T03:20:54.212Z,19.6
2019-03-21T03:21:46.108Z,19.7
2019-03-21T03:22:35.305Z,19.8
2019-03-21T03:23:25.220Z,19.7
2019-03-21T03:24:15.748Z,19.7
2019-03-21T03:25:06.110Z,19.6
2019-03-21T03:25:59.033Z,19.6
2019-03-21T03:26:45.469Z,19.6
2019-03-21T03:27:36.248Z,19.6
2019-03-21T03:28:26.154Z,19.6
2019-03-21T03:29:15.805Z,19.7
2019-03-21T03:30:06.381Z,19.8
2019-03-21T03:30:57.061Z,19.8
2019-03-21T03:31:46.621Z,19.8
2019-03-21T03:32:36.642Z,19.8
2019-03-21T03:33:27.263Z,19.8
2019-03-21T03:34:17.005Z,19.8
2019-03-21T03:35:07.520Z,19.8
2019-03-21T03:35:56.795Z,19.7
2019-03-21T03:36:46.098Z,19.7
2019-03-21T03:37:36.202Z,19.6
2019-03-21T03:38:27.175Z,19.6
2019-03-21T03:39:16.571Z,19.6
2019-03-21T03:40:07.113Z,19.6
2019-03-21T03:40:57.299Z,19.5
2019-03-21T03:41:46.166Z,19.5
2019-03-21T03:42:36.791Z,19.4
2019-03-21T03:43:27.281Z,19.4
2019-03-21T03:44:16.766Z,19.4
2019-03-21T03:45:07.181Z,19.4
2019-03-21T03:45:57.049Z,19.3
2019-03-21T03:46:46.898Z,19.3
2019-03-21T03:47:37.743Z,19.3
2019-03-21T03:48:29.917Z,19.2
2019-03-21T03:49:17.348Z,19.1
2019-03-21T03:50:07.989Z,19.1
2019-03-21T03:50:57.542Z,19.1
2019-03-21T03:51:47.789Z,19.1
2019-03-21T03:52:37.268Z,19
2019-03-21T03:53:27.447Z,18.9
2019-03-21T03:54:17.910Z,18.9
2019-03-21T03:55:08.591Z,18.9
2019-03-21T03:55:57.476Z,18.9
2019-03-21T03:56:47.848Z,18.9
2019-03-21T03:57:38.271Z,18.9
2019-03-21T03:58:28.645Z,18.9
2019-03-21T03:59:18.245Z,18.9
2019-03-21T04:00:08.293Z,18.9
2019-03-21T04:00:58.797Z,19
2019-03-21T04:01:49.000Z,19.1
2019-03-21T04:02:37.709Z,19.1
2019-03-21T04:03:28.271Z,19.1
2019-03-21T04:04:17.579Z,19.2
2019-03-21T04:05:09.115Z,19.3
2019-03-21T04:05:58.154Z,19.3
2019-03-21T04:06:47.980Z,19.4
2019-03-21T04:07:38.146Z,19.5
2019-03-21T04:08:28.932Z,19.6
2019-03-21T04:09:19.068Z,19.7
2019-03-21T04:10:07.891Z,19.8
2019-03-21T04:10:59.290Z,19.7
2019-03-21T04:11:48.925Z,19.6
2019-03-21T04:12:39.040Z,19.6
2019-03-21T04:13:29.422Z,19.6
2019-03-21T04:14:18.564Z,19.6
2019-03-21T04:15:09.379Z,19.6
2019-03-21T04:16:02.400Z,19.6
2019-03-21T04:16:49.087Z,19.6
2019-03-21T04:17:39.656Z,19.6
2019-03-21T04:18:29.740Z,19.6
2019-03-21T04:19:19.163Z,19.7
2019-03-21T04:20:09.325Z,19.7
2019-03-21T04:20:59.886Z,19.8
2019-03-21T04:21:49.710Z,19.8
2019-03-21T04:22:39.376Z,19.7
2019-03-21T04:23:29.234Z,19.7
2019-03-21T04:24:20.124Z,19.7
2019-03-21T04:25:25.252Z,19.6
2019-03-21T04:25:59.791Z,19.6
2019-03-21T04:26:50.345Z,19.6
2019-03-21T04:27:40.481Z,19.6
2019-03-21T04:28:29.335Z,19.6
2019-03-21T04:29:20.426Z,19.6
2019-03-21T04:30:10.326Z,19.5
2019-03-21T04:31:00.608Z,19.4
2019-03-21T04:31:50.181Z,19.4
2019-03-21T04:32:39.638Z,19.3
2019-03-21T04:33:31.833Z,19.3
2019-03-21T04:34:20.364Z,19.2
2019-03-21T04:35:10.340Z,19.2
2019-03-21T04:36:00.176Z,19.2
2019-03-21T04:36:50.260Z,19.1
2019-03-21T04:37:39.701Z,19.1
2019-03-21T04:38:30.373Z,19.1
2019-03-21T04:39:20.673Z,19
2019-03-21T04:40:10.708Z,19
2019-03-21T04:41:01.666Z,18.9
2019-03-21T04:41:50.865Z,18.9
2019-03-21T04:42:40.495Z,18.9
2019-03-21T04:43:31.402Z,18.9
2019-03-21T04:44:20.657Z,18.8
2019-03-21T04:45:11.312Z,18.9
2019-03-21T04:46:13.042Z,18.9
2019-03-21T04:46:51.384Z,18.9
2019-03-21T04:47:41.109Z,18.9
2019-03-21T04:48:32.026Z,19.1
2019-03-21T04:49:20.687Z,19.1
2019-03-21T04:50:12.184Z,19.1
2019-03-21T04:51:01.424Z,19.2
2019-03-21T04:51:51.739Z,19.3
2019-03-21T04:52:41.789Z,19.3
2019-03-21T04:53:31.302Z,19.4
2019-03-21T04:54:21.955Z,19.5
2019-03-21T04:55:12.254Z,19.6
2019-03-21T04:56:01.461Z,19.6
2019-03-21T04:56:52.469Z,19.8
2019-03-21T04:57:42.457Z,19.9
2019-03-21T04:58:32.802Z,19.8
2019-03-21T04:59:22.625Z,19.8
2019-03-21T05:00:11.547Z,19.7
2019-03-21T05:01:03.106Z,19.7
2019-03-21T05:01:52.771Z,19.6
2019-03-21T05:02:42.846Z,19.6
2019-03-21T05:03:32.081Z,19.6
2019-03-21T05:04:22.656Z,19.5
2019-03-21T05:05:12.574Z,19.5
2019-03-21T05:06:02.334Z,19.6
2019-03-21T05:06:52.926Z,19.6
2019-03-21T05:07:41.576Z,19.6
2019-03-21T05:08:33.816Z,19.7
2019-03-21T05:09:22.176Z,19.7
2019-03-21T05:10:12.551Z,19.7
2019-03-21T05:11:02.184Z,19.7
2019-03-21T05:11:52.058Z,19.7
2019-03-21T05:12:42.951Z,19.7
2019-03-21T05:13:33.371Z,19.6
2019-03-21T05:14:23.608Z,19.6
2019-03-21T05:15:13.411Z,19.6
2019-03-21T05:16:15.742Z,19.5
2019-03-21T05:16:51.898Z,19.4
2019-03-21T05:17:43.045Z,19.4
2019-03-21T05:18:33.089Z,19.4
2019-03-21T05:19:23.433Z,19.3
2019-03-21T05:20:16.793Z,19.3
2019-03-21T05:21:03.846Z,19.2
2019-03-21T05:21:54.458Z,19.2
2019-03-21T05:22:44.818Z,19.1
2019-03-21T05:23:33.766Z,19.1
2019-03-21T05:24:24.622Z,19.1
2019-03-21T05:25:14.693Z,19
2019-03-21T05:26:07.293Z,19
2019-03-21T05:26:53.435Z,18.9
2019-03-21T05:27:44.587Z,18.9
2019-03-21T05:28:34.658Z,18.9
2019-03-21T05:29:24.138Z,18.9
2019-03-21T05:30:14.492Z,18.8
2019-03-21T05:31:04.338Z,18.8
2019-03-21T05:31:55.146Z,18.8
2019-03-21T05:34:25.112Z,18.6
2019-03-21T05:35:15.164Z,18.6
2019-03-21T05:36:05.073Z,18.6
2019-03-21T05:36:58.095Z,18.5
2019-03-21T05:37:44.794Z,18.5
2019-03-21T05:38:35.169Z,18.4
2019-03-21T05:39:24.432Z,18.4
2019-03-21T05:40:14.740Z,18.4
2019-03-21T05:41:04.870Z,18.4
2019-03-21T05:41:55.362Z,18.3
2019-03-21T05:42:44.679Z,18.3
2019-03-21T05:43:35.041Z,18.3
2019-03-21T05:44:24.446Z,18.2
2019-03-21T05:45:15.122Z,18.2
2019-03-21T05:46:05.428Z,18.1
2019-03-21T05:46:55.449Z,18.1
2019-03-21T05:47:46.069Z,18.1
2019-03-21T05:48:34.966Z,18.1
2019-03-21T05:49:25.959Z,18.1
2019-03-21T05:50:18.112Z,18.1
2019-03-21T05:51:06.140Z,18.1
2019-03-21T05:51:56.118Z,18.1
2019-03-21T05:52:44.786Z,18.2
2019-03-21T05:53:35.776Z,18.3
2019-03-21T05:54:25.843Z,18.3
2019-03-21T05:55:16.703Z,18.4
2019-03-21T05:56:05.383Z,18.4
2019-03-21T05:56:56.456Z,18.5
2019-03-21T05:57:46.758Z,18.4
2019-03-21T05:58:35.719Z,18.4
2019-03-21T05:59:26.419Z,18.4
2019-03-21T06:00:17.578Z,18.5
2019-03-21T06:01:07.315Z,18.5
2019-03-21T06:01:56.812Z,18.6
2019-03-21T06:02:46.568Z,18.6
2019-03-21T06:05:33.851Z,18.6
2019-03-21T06:06:24.976Z,18.6
2019-03-21T06:10:32.835Z,18.6
2019-03-21T06:11:23.972Z,18.6
2019-03-21T06:12:14.758Z,18.6
2019-03-21T06:13:04.560Z,18.5
2019-03-21T06:13:53.059Z,18.5
2019-03-21T06:14:45.231Z,18.5
2019-03-21T06:15:35.333Z,18.4
2019-03-21T06:16:24.877Z,18.4
2019-03-21T06:17:14.912Z,18.4
2019-03-21T06:18:04.662Z,18.4
2019-03-21T06:18:54.727Z,18.4
2019-03-21T06:19:44.754Z,18.3
2019-03-21T06:20:35.386Z,18.3
2019-03-21T06:21:24.170Z,18.3
2019-03-21T06:22:15.282Z,18.3
2019-03-21T06:23:05.034Z,18.3
2019-03-21T06:23:55.922Z,18.2
2019-03-21T17:24:44.316Z,14.8
2019-03-21T17:25:02.763Z,14.8
2019-03-21T17:25:51.691Z,14.8
2019-03-21T17:26:43.101Z,14.8
2019-03-21T17:27:33.147Z,14.8
2019-03-21T17:28:23.518Z,14.8
2019-03-21T17:29:13.051Z,14.8
2019-03-21T17:30:02.989Z,14.8
2019-03-21T17:30:52.905Z,14.8
2019-03-21T17:31:42.706Z,14.8
2019-03-21T17:32:32.993Z,14.8
2019-03-21T17:33:23.323Z,14.8
2019-03-21T17:34:13.890Z,14.8
2019-03-21T17:35:03.854Z,14.8
2019-03-21T17:35:53.494Z,14.8
2019-03-21T17:36:42.707Z,14.8
2019-03-21T17:37:33.343Z,14.8
2019-03-21T17:38:23.996Z,14.8
2019-03-21T17:39:28.460Z,14.8
2019-03-21T17:40:03.813Z,14.8
2019-03-21T17:40:53.970Z,14.8
2019-03-21T17:41:46.968Z,14.8
2019-03-21T17:42:33.456Z,14.8
2019-03-21T17:43:24.293Z,14.8
2019-03-21T17:45:04.570Z,14.8
2019-03-21T17:45:54.287Z,14.8
2019-03-21T17:46:43.692Z,14.8
2019-03-21T17:47:34.420Z,14.8
2019-03-21T17:48:24.627Z,14.8
2019-03-21T17:49:15.052Z,14.8
2019-03-21T17:50:04.992Z,14.8
2019-03-21T17:50:54.059Z,14.8
2019-03-21T17:51:47.399Z,14.8
2019-03-21T17:52:34.958Z,14.8
2019-03-21T17:53:23.909Z,14.8
2019-03-21T17:54:14.517Z,14.8
2019-03-21T17:55:05.072Z,14.8
2019-03-21T17:55:54.894Z,14.8
2019-03-21T17:56:45.229Z,14.8
2019-03-21T17:57:44.519Z,14.8
2019-03-21T17:58:24.531Z,14.8
2019-03-21T17:59:15.484Z,14.8
2019-03-21T18:00:05.519Z,14.8
2019-03-21T18:00:55.329Z,14.8
2019-03-21T18:01:44.009Z,14.8
2019-03-21T18:02:35.109Z,14.8
2019-03-21T18:03:25.451Z,14.8
2019-03-21T18:04:29.338Z,14.8
2019-03-21T18:05:05.203Z,14.8
2019-03-21T19:50:40.270Z,18.1
2019-03-21T19:50:50.762Z,18.3
2019-03-21T19:51:40.537Z,18.3
2019-03-21T19:52:30.932Z,18.4
2019-03-21T19:53:20.897Z,18.5
2019-03-21T19:54:11.070Z,18.5
2019-03-21T19:55:00.937Z,18.5
2019-03-21T19:55:50.011Z,18.5
2019-03-21T19:56:41.464Z,18.5
2019-03-21T19:57:31.550Z,18.6
2019-03-21T19:58:35.754Z,18.6
2019-03-21T20:00:01.470Z,18.8
2019-03-21T20:00:52.178Z,18.8
2019-03-21T20:01:40.987Z,18.8
2019-03-21T20:02:30.189Z,18.8
2019-03-21T20:03:21.394Z,18.8
2019-03-21T20:06:04.108Z,18.6
2019-03-21T20:06:41.996Z,18.6
2019-03-21T20:07:32.761Z,18.6
2019-03-21T20:08:21.254Z,18.6
2019-03-21T20:09:26.261Z,18.6
2019-03-21T20:10:03.313Z,18.5
2019-03-21T20:10:52.554Z,18.5
2019-03-21T20:11:42.072Z,18.5
2019-03-21T20:12:32.168Z,18.4
2019-03-21T20:13:21.824Z,18.4
2019-03-21T20:14:13.301Z,18.4
2019-03-21T20:15:02.671Z,18.4
2019-03-21T20:16:06.478Z,18.3
2019-03-21T20:16:42.918Z,18.3
2019-03-21T20:17:31.590Z,18.3
2019-03-21T20:18:22.638Z,18.2
2019-03-21T20:19:28.535Z,18.2
2019-03-21T20:20:02.404Z,18.2
2019-03-21T20:20:51.973Z,18.2
2019-03-21T20:21:56.873Z,18.1
2019-03-21T20:22:31.805Z,18.1
2019-03-21T20:23:22.082Z,18.1
2019-03-21T20:24:11.668Z,18.1
2019-03-21T20:25:02.091Z,18.1
2019-03-21T20:25:51.975Z,18
2019-03-21T20:26:41.775Z,18
2019-03-21T20:27:32.425Z,17.9
2019-03-21T20:28:23.481Z,17.9
2019-03-21T20:29:13.232Z,17.9
2019-03-21T20:30:03.707Z,17.9
2019-03-21T20:30:52.968Z,17.8
2019-03-21T20:31:43.471Z,17.8
2019-03-21T20:32:32.979Z,17.8
2019-03-21T20:33:23.745Z,17.8
2019-03-21T20:34:16.770Z,17.9
2019-03-21T20:35:03.205Z,17.9
2019-03-21T20:35:52.452Z,17.9
2019-03-21T20:36:43.226Z,18
2019-03-21T20:37:33.580Z,18.1
2019-03-21T20:38:23.105Z,18.2
2019-03-21T20:39:28.485Z,18.3
2019-03-21T20:40:04.029Z,18.4
2019-03-21T20:40:53.642Z,18.4
2019-03-21T20:41:44.680Z,18.5
2019-03-21T20:42:33.794Z,18.6
2019-03-21T20:43:23.310Z,18.6
2019-03-21T20:45:04.616Z,18.8
2019-03-21T20:45:54.455Z,18.8
2019-03-21T20:47:37.179Z,18.6
2019-03-21T20:48:24.904Z,18.6
2019-03-21T20:49:14.802Z,18.6
2019-03-21T20:51:45.432Z,18.8
2019-03-21T20:52:35.282Z,18.8
2019-03-21T20:53:28.175Z,18.8
2019-03-21T20:54:14.246Z,18.8
2019-03-21T20:56:44.752Z,18.6
2019-03-21T20:57:35.633Z,18.6
2019-03-21T20:58:24.544Z,18.6
2019-03-21T20:59:15.794Z,18.6
2019-03-21T21:00:06.481Z,18.6
2019-03-21T21:00:55.573Z,18.5
2019-03-21T21:01:45.613Z,18.6
2019-03-21T21:02:35.449Z,18.5
2019-03-21T21:03:26.084Z,18.5
2019-03-21T21:04:15.511Z,18.5
2019-03-21T21:05:05.933Z,18.4
2019-03-21T21:05:55.695Z,18.4
2019-03-21T21:06:46.033Z,18.4
2019-03-21T21:07:36.723Z,18.4
2019-03-21T21:08:25.811Z,18.4
2019-03-21T21:09:17.023Z,18.3
2019-03-21T21:10:06.010Z,18.3
2019-03-21T21:10:57.091Z,18.3
2019-03-21T21:11:45.535Z,18.3
2019-03-21T21:12:35.598Z,18.3
2019-03-21T21:13:40.593Z,18.2
2019-03-21T21:14:16.840Z,18.2
2019-03-21T21:15:06.780Z,18.1
2019-03-21T21:15:56.993Z,18.1
2019-03-21T21:16:46.110Z,18.1
2019-03-21T21:17:36.545Z,18.1
2019-03-21T21:18:27.237Z,18.1
2019-03-21T21:19:16.927Z,18
2019-03-21T21:20:06.478Z,18
2019-03-21T21:20:57.327Z,17.9
2019-03-21T21:21:45.887Z,17.9
2019-03-21T21:22:36.837Z,17.9
2019-03-21T21:23:27.474Z,17.9
2019-03-21T21:24:16.212Z,17.8
2019-03-21T21:25:07.320Z,17.8
2019-03-21T21:26:10.110Z,17.9
2019-03-21T21:26:47.502Z,17.9
2019-03-21T21:27:51.275Z,17.9
2019-03-21T21:28:27.361Z,18
2019-03-21T21:29:17.172Z,18
2019-03-21T21:30:22.787Z,18.1
2019-03-21T21:30:57.752Z,18.1
2019-03-21T21:31:47.281Z,18.2
2019-03-21T21:32:37.012Z,18.2
2019-03-21T21:33:27.989Z,18.3
2019-03-21T21:34:17.975Z,18.4
2019-03-21T21:35:08.879Z,18.5
2019-03-21T21:35:57.549Z,18.6
2019-03-21T21:37:37.414Z,18.6
2019-03-21T21:38:28.831Z,18.6
2019-03-21T21:39:18.355Z,18.5
2019-03-21T21:40:11.076Z,18.5
2019-03-21T21:40:58.509Z,18.6
2019-03-21T21:41:48.334Z,18.6
2019-03-21T21:50:08.668Z,18.8
2019-03-21T21:52:51.886Z,18.6
2019-03-21T21:53:28.810Z,18.6
2019-03-21T21:54:18.628Z,18.6
2019-03-21T21:55:10.208Z,18.5
2019-03-21T21:56:21.596Z,18.5
2019-03-21T21:56:49.865Z,18.4
2019-03-21T21:57:38.807Z,18.4
2019-03-21T21:58:44.915Z,18.4
2019-03-21T21:59:19.815Z,18.4
2019-03-21T22:00:09.943Z,18.3
2019-03-21T22:01:00.420Z,18.3
2019-03-21T22:01:50.246Z,18.3
2019-03-21T22:02:40.262Z,18.3
2019-03-21T22:03:30.933Z,18.3
2019-03-21T22:04:20.692Z,18.2
2019-03-21T22:05:10.775Z,18.2
2019-03-21T22:05:59.718Z,18.1
2019-03-21T22:06:50.847Z,18.1
2019-03-21T22:07:39.804Z,18.1
2019-03-21T22:08:30.987Z,18
2019-03-21T22:09:21.385Z,18
2019-03-21T22:10:10.348Z,17.9
2019-03-21T22:11:00.047Z,17.9
2019-03-21T22:11:50.949Z,17.9
2019-03-21T22:12:39.469Z,17.9
2019-03-21T22:13:30.807Z,17.8
2019-03-21T22:14:21.145Z,17.8
2019-03-21T22:15:11.234Z,17.8
2019-03-21T22:16:01.542Z,17.8
2019-03-21T22:16:51.097Z,17.8
2019-03-21T22:17:41.386Z,17.8
2019-03-21T22:18:30.924Z,17.9
2019-03-21T22:19:21.514Z,17.8
2019-03-21T22:20:11.854Z,17.9
2019-03-21T22:21:01.644Z,17.9
2019-03-21T22:21:51.696Z,18
2019-03-21T22:22:41.214Z,18.1
2019-03-21T22:23:32.582Z,18.1
2019-03-21T22:24:21.334Z,18.2
2019-03-21T22:25:10.816Z,18.3
2019-03-21T22:26:02.058Z,18.3
2019-03-21T22:26:52.395Z,18.4
2019-03-21T22:27:42.169Z,18.5
2019-03-21T22:28:32.381Z,18.6
2019-03-21T22:29:21.936Z,18.8
2019-03-21T22:30:13.802Z,18.9
2019-03-21T22:31:01.809Z,18.9
2019-03-21T22:31:52.406Z,18.9
2019-03-21T22:32:41.979Z,19
2019-03-21T22:33:32.044Z,19.1
2019-03-21T22:34:25.291Z,19.1
2019-03-21T22:35:12.916Z,19.3
2019-03-21T22:36:01.608Z,19.3
2019-03-21T22:36:59.053Z,19.4
2019-03-21T22:37:42.956Z,19.6
2019-03-21T22:38:33.076Z,19.6
2019-03-21T22:39:22.470Z,19.7
2019-03-21T22:40:13.320Z,19.8
2019-03-21T22:41:02.513Z,19.8
2019-03-21T22:41:52.923Z,19.8
2019-03-21T22:42:42.435Z,19.7
2019-03-21T22:43:33.078Z,19.6
2019-03-21T22:44:23.910Z,19.6
2019-03-21T22:45:13.395Z,19.5
2019-03-21T22:46:02.565Z,19.4
2019-03-21T22:46:53.775Z,19.4
2019-03-21T22:47:42.738Z,19.4
2019-03-21T22:48:33.342Z,19.4
2019-03-21T22:49:23.673Z,19.4
2019-03-21T22:50:16.307Z,19.4
2019-03-21T22:51:04.107Z,19.5
2019-03-21T22:51:52.705Z,19.5
2019-03-21T22:52:43.690Z,19.4
2019-03-21T22:53:35.593Z,19.4
2019-03-21T22:54:23.617Z,19.4
2019-03-21T22:55:13.270Z,19.4
2019-03-21T22:56:03.389Z,19.4
2019-03-21T22:56:54.750Z,19.3
2019-03-21T22:57:43.454Z,19.3
2019-03-21T22:58:43.574Z,19.3
2019-03-21T22:59:24.712Z,19.2
2019-03-21T23:00:14.238Z,19.2
2019-03-21T23:01:04.309Z,19.2
2019-03-21T23:01:54.032Z,19.2
2019-03-21T23:02:44.138Z,19.2
2019-03-21T23:03:34.409Z,19.2
2019-03-21T23:04:25.324Z,19.3
2019-03-21T23:05:14.903Z,19.3
2019-03-21T23:06:04.629Z,19.3
2019-03-21T23:07:09.721Z,19.3
2019-03-21T23:07:44.249Z,19.4
2019-03-21T23:08:35.130Z,19.4
2019-03-21T23:09:25.159Z,19.5
2019-03-21T23:10:14.524Z,19.5
2019-03-21T23:11:05.010Z,19.5
2019-03-21T23:11:53.834Z,19.6
2019-03-21T23:12:45.116Z,19.6
2019-03-21T23:13:34.621Z,19.6
2019-03-21T23:14:38.601Z,19.7
2019-03-21T23:15:15.327Z,19.8
2019-03-21T23:16:05.419Z,19.8
2019-03-21T23:16:54.908Z,19.9
2019-03-21T23:17:47.987Z,19.9
2019-03-21T23:18:34.508Z,19.9
2019-03-21T23:19:25.591Z,20
2019-03-21T23:20:16.573Z,19.9
2019-03-21T23:21:04.731Z,19.9
2019-03-21T23:21:56.389Z,19.8
2019-03-21T23:22:44.070Z,19.8
2019-03-21T23:23:35.888Z,19.8
2019-03-21T23:24:25.778Z,19.7
2019-03-21T23:25:19.691Z,19.7
2019-03-21T23:26:05.374Z,19.6
2019-03-21T23:27:01.535Z,19.6
2019-03-21T23:27:45.230Z,19.6
2019-03-21T23:28:36.103Z,19.6
2019-03-21T23:29:24.800Z,19.7
2019-03-21T23:30:16.313Z,19.7
2019-03-21T23:31:05.985Z,19.7
2019-03-21T23:31:56.105Z,19.7
2019-03-21T23:32:45.550Z,19.7
2019-03-21T23:33:36.750Z,19.7
2019-03-21T23:34:25.952Z,19.7
2019-03-21T23:35:16.002Z,19.6
2019-03-21T23:36:06.933Z,19.6
2019-03-21T23:36:56.427Z,19.5
2019-03-21T23:37:46.782Z,19.4
2019-03-21T23:38:36.492Z,19.4
2019-03-21T23:39:26.918Z,19.4
2019-03-21T23:40:16.202Z,19.3
2019-03-21T23:41:05.649Z,19.3
2019-03-21T23:41:55.785Z,19.3
2019-03-21T23:42:46.078Z,19.3
2019-03-21T23:43:36.900Z,19.3
2019-03-21T23:44:25.809Z,19.3
2019-03-21T23:45:19.799Z,19.3
2019-03-21T23:46:06.859Z,19.3
2019-03-21T23:46:56.839Z,19.3
2019-03-21T23:47:47.181Z,19.4
2019-03-21T23:48:37.499Z,19.4
2019-03-21T23:49:28.327Z,19.5
2019-03-21T23:50:17.664Z,19.5
2019-03-21T23:51:07.277Z,19.6
2019-03-21T23:51:57.757Z,19.7
2019-03-21T23:52:48.107Z,19.8
2019-03-21T23:53:37.021Z,19.8
2019-03-21T23:54:27.643Z,19.9
2019-03-21T23:55:18.012Z,19.9
2019-03-21T23:56:08.071Z,19.9
2019-03-21T23:57:10.508Z,20
2019-03-21T23:57:47.694Z,19.9
2019-03-21T23:58:37.943Z,19.9
2019-03-21T23:59:28.048Z,19.8
